VTD754 UWSG-UWWW
Flight info
| Callsign | VTD754 |
|---|---|
| Flight time | 1h 8m |
| Altitude | 15000 |
| Route | BEBNO P135 TUNIG |
| Aircraft | DA42/L-L/C |
Departure
| Time | 2026-04-29 10:17 |
|---|---|
| Airport | Gagarin International Airport (UWSG) |
Arrival
| Time | 2026-04-29 11:25 |
|---|---|
| Airport | Kurumoch International Airport (UWWW) |
| Time | Latitude | Longitude | Altitude | Speed | Heading |
|---|---|---|---|---|---|
| 2026-04-29 10:06 | 51.71560 | 46.17102 | 99 ft | 0 kts | 182° |
| 2026-04-29 10:14 | 51.71557 | 46.17101 | 99 ft | 3 kts | 185° |
| 2026-04-29 10:14 | 51.71532 | 46.17108 | 99 ft | 6 kts | 141° |
| 2026-04-29 10:14 | 51.71521 | 46.17215 | 99 ft | 14 kts | 92° |
| 2026-04-29 10:14 | 51.71512 | 46.17398 | 100 ft | 17 kts | 128° |
| 2026-04-29 10:15 | 51.71399 | 46.17415 | 100 ft | 18 kts | 182° |
| 2026-04-29 10:15 | 51.71375 | 46.17414 | 100 ft | 0 kts | 183° |
| 2026-04-29 10:15 | 51.71331 | 46.17411 | 101 ft | 13 kts | 183° |
| 2026-04-29 10:15 | 51.71259 | 46.17329 | 102 ft | 11 kts | 270° |
| 2026-04-29 10:16 | 51.71259 | 46.17321 | 102 ft | 0 kts | 269° |
| 2026-04-29 10:16 | 51.71271 | 46.16849 | 97 ft | 71 kts | 273° |
| 2026-04-29 10:16 | 51.71290 | 46.15922 | 247 ft | 90 kts | 270° |
| 2026-04-29 10:17 | 51.71316 | 46.14889 | 650 ft | 88 kts | 269° |
| 2026-04-29 10:17 | 51.71334 | 46.13955 | 1186 ft | 82 kts | 268° |
| 2026-04-29 10:17 | 51.71352 | 46.13029 | 1633 ft | 83 kts | 269° |
| 2026-04-29 10:17 | 51.71373 | 46.12088 | 2047 ft | 85 kts | 269° |
| 2026-04-29 10:18 | 51.71395 | 46.11140 | 2415 ft | 84 kts | 269° |
| 2026-04-29 10:18 | 51.71418 | 46.10186 | 2734 ft | 86 kts | 268° |
| 2026-04-29 10:18 | 51.71440 | 46.09225 | 3099 ft | 86 kts | 269° |
| 2026-04-29 10:18 | 51.71462 | 46.08247 | 3429 ft | 88 kts | 269° |
| 2026-04-29 10:19 | 51.71485 | 46.07256 | 3769 ft | 88 kts | 269° |
| 2026-04-29 10:19 | 51.71506 | 46.06277 | 4125 ft | 87 kts | 269° |
| 2026-04-29 10:19 | 51.71528 | 46.05299 | 4471 ft | 88 kts | 269° |
| 2026-04-29 10:19 | 51.71551 | 46.04313 | 4829 ft | 88 kts | 269° |
| 2026-04-29 10:20 | 51.71572 | 46.03315 | 5163 ft | 90 kts | 269° |
| 2026-04-29 10:20 | 51.71611 | 46.02295 | 5520 ft | 93 kts | 277° |
| 2026-04-29 10:20 | 51.71884 | 46.01334 | 5861 ft | 98 kts | 301° |
| 2026-04-29 10:20 | 51.72437 | 46.00636 | 6239 ft | 107 kts | 327° |
| 2026-04-29 10:21 | 51.73198 | 46.00447 | 6612 ft | 115 kts | 353° |
| 2026-04-29 10:21 | 51.74005 | 46.00493 | 6967 ft | 117 kts | 354° |
| 2026-04-29 10:21 | 51.74813 | 46.00543 | 7344 ft | 116 kts | 353° |
| 2026-04-29 10:21 | 51.75624 | 46.00592 | 7713 ft | 117 kts | 353° |
| 2026-04-29 10:22 | 51.76441 | 46.00639 | 8078 ft | 118 kts | 352° |
| 2026-04-29 10:22 | 51.77263 | 46.00686 | 8464 ft | 119 kts | 352° |
| 2026-04-29 10:22 | 51.78092 | 46.00736 | 8850 ft | 120 kts | 351° |
| 2026-04-29 10:22 | 51.78927 | 46.00782 | 9213 ft | 120 kts | 351° |
| 2026-04-29 10:23 | 51.79766 | 46.00828 | 9588 ft | 121 kts | 351° |
| 2026-04-29 10:23 | 51.80614 | 46.00879 | 9962 ft | 124 kts | 354° |
| 2026-04-29 10:23 | 51.81459 | 46.01339 | 10313 ft | 135 kts | 26° |
| 2026-04-29 10:23 | 51.82095 | 46.02492 | 10624 ft | 142 kts | 63° |
| 2026-04-29 10:24 | 51.82282 | 46.04049 | 10934 ft | 142 kts | 96° |
| 2026-04-29 10:24 | 51.82253 | 46.05631 | 11234 ft | 144 kts | 98° |
| 2026-04-29 10:24 | 51.82211 | 46.07248 | 11551 ft | 145 kts | 98° |
| 2026-04-29 10:24 | 51.82171 | 46.08880 | 11889 ft | 146 kts | 98° |
| 2026-04-29 10:25 | 51.82132 | 46.10529 | 12219 ft | 148 kts | 99° |
| 2026-04-29 10:25 | 51.82093 | 46.12204 | 12526 ft | 151 kts | 99° |
| 2026-04-29 10:25 | 51.82054 | 46.13903 | 12864 ft | 152 kts | 99° |
| 2026-04-29 10:25 | 51.82016 | 46.15621 | 13205 ft | 154 kts | 99° |
| 2026-04-29 10:26 | 51.81976 | 46.17357 | 13546 ft | 155 kts | 99° |
| 2026-04-29 10:26 | 51.81935 | 46.19111 | 13892 ft | 157 kts | 100° |
| 2026-04-29 10:26 | 51.81895 | 46.20881 | 14187 ft | 159 kts | 100° |
| 2026-04-29 10:26 | 51.81853 | 46.22678 | 14474 ft | 161 kts | 100° |
| 2026-04-29 10:27 | 51.81767 | 46.26328 | 15073 ft | 164 kts | 101° |
| 2026-04-29 10:27 | 51.81714 | 46.28282 | 15140 ft | 185 kts | 100° |
| 2026-04-29 10:27 | 51.81657 | 46.30447 | 15141 ft | 200 kts | 99° |
| 2026-04-29 10:28 | 51.81604 | 46.32750 | 15135 ft | 210 kts | 98° |
| 2026-04-29 10:28 | 51.81551 | 46.35142 | 15136 ft | 215 kts | 98° |
| 2026-04-29 10:28 | 51.81511 | 46.37581 | 15133 ft | 220 kts | 92° |
| 2026-04-29 10:28 | 51.81831 | 46.40026 | 15129 ft | 226 kts | 68° |
| 2026-04-29 10:29 | 51.82641 | 46.42190 | 15134 ft | 225 kts | 49° |
| 2026-04-29 10:29 | 51.83591 | 46.44176 | 15132 ft | 226 kts | 47° |
| 2026-04-29 10:29 | 51.84568 | 46.46177 | 15129 ft | 227 kts | 47° |
| 2026-04-29 10:29 | 51.85540 | 46.48184 | 15128 ft | 227 kts | 48° |
| 2026-04-29 10:30 | 51.86511 | 46.50202 | 15127 ft | 227 kts | 48° |
| 2026-04-29 10:30 | 51.87481 | 46.52221 | 15127 ft | 228 kts | 48° |
| 2026-04-29 10:30 | 51.88454 | 46.54249 | 15127 ft | 228 kts | 48° |
| 2026-04-29 10:30 | 51.89424 | 46.56271 | 15127 ft | 228 kts | 48° |
| 2026-04-29 10:31 | 51.90396 | 46.58296 | 15125 ft | 227 kts | 48° |
| 2026-04-29 10:31 | 51.91365 | 46.60316 | 15120 ft | 227 kts | 48° |
| 2026-04-29 10:31 | 51.92333 | 46.62338 | 15123 ft | 227 kts | 48° |
| 2026-04-29 10:31 | 51.93303 | 46.64367 | 15120 ft | 228 kts | 48° |
| 2026-04-29 10:32 | 51.94273 | 46.66394 | 15126 ft | 228 kts | 48° |
| 2026-04-29 10:32 | 51.95244 | 46.68426 | 15125 ft | 228 kts | 48° |
| 2026-04-29 10:32 | 51.96215 | 46.70457 | 15126 ft | 228 kts | 48° |
| 2026-04-29 10:32 | 51.97187 | 46.72491 | 15124 ft | 228 kts | 48° |
| 2026-04-29 10:33 | 51.98159 | 46.74529 | 15120 ft | 228 kts | 48° |
| 2026-04-29 10:33 | 51.99129 | 46.76565 | 15119 ft | 228 kts | 48° |
| 2026-04-29 10:33 | 52.00099 | 46.78607 | 15121 ft | 228 kts | 48° |
| 2026-04-29 10:33 | 52.01069 | 46.80647 | 15119 ft | 228 kts | 48° |
| 2026-04-29 10:34 | 52.02040 | 46.82687 | 15125 ft | 228 kts | 48° |
| 2026-04-29 10:34 | 52.03009 | 46.84726 | 15122 ft | 228 kts | 48° |
| 2026-04-29 10:34 | 52.03979 | 46.86769 | 15133 ft | 228 kts | 49° |
| 2026-04-29 10:34 | 52.04950 | 46.88808 | 15121 ft | 228 kts | 49° |
| 2026-04-29 10:35 | 52.05913 | 46.90838 | 15125 ft | 227 kts | 49° |
| 2026-04-29 10:35 | 52.06873 | 46.92868 | 15125 ft | 227 kts | 49° |
| 2026-04-29 10:35 | 52.07833 | 46.94899 | 15124 ft | 226 kts | 49° |
| 2026-04-29 10:35 | 52.08778 | 46.96902 | 15124 ft | 226 kts | 49° |
| 2026-04-29 10:36 | 52.09734 | 46.98929 | 15126 ft | 226 kts | 49° |
| 2026-04-29 10:36 | 52.10693 | 47.00961 | 15125 ft | 226 kts | 49° |
| 2026-04-29 10:36 | 52.11651 | 47.02995 | 15125 ft | 226 kts | 49° |
| 2026-04-29 10:36 | 52.12610 | 47.05032 | 15125 ft | 227 kts | 49° |
| 2026-04-29 10:37 | 52.13566 | 47.07066 | 15122 ft | 226 kts | 49° |
| 2026-04-29 10:37 | 52.14523 | 47.09099 | 15120 ft | 226 kts | 49° |
| 2026-04-29 10:37 | 52.15480 | 47.11135 | 15123 ft | 227 kts | 49° |
| 2026-04-29 10:37 | 52.16436 | 47.13174 | 15121 ft | 227 kts | 49° |
| 2026-04-29 10:38 | 52.17083 | 47.14556 | 15126 ft | 227 kts | 49° |
| 2026-04-29 10:38 | 52.18040 | 47.16600 | 15118 ft | 227 kts | 49° |
| 2026-04-29 10:38 | 52.18997 | 47.18645 | 15120 ft | 227 kts | 49° |
| 2026-04-29 10:38 | 52.19953 | 47.20690 | 15121 ft | 227 kts | 49° |
| 2026-04-29 10:39 | 52.20897 | 47.22709 | 15126 ft | 227 kts | 50° |
| 2026-04-29 10:39 | 52.21851 | 47.24751 | 15119 ft | 226 kts | 50° |
| 2026-04-29 10:39 | 52.22801 | 47.26787 | 15120 ft | 225 kts | 50° |
| 2026-04-29 10:39 | 52.23749 | 47.28820 | 15119 ft | 225 kts | 50° |
| 2026-04-29 10:40 | 52.24697 | 47.30853 | 15118 ft | 226 kts | 50° |
| 2026-04-29 10:40 | 52.25648 | 47.32893 | 15118 ft | 226 kts | 50° |
| 2026-04-29 10:40 | 52.26598 | 47.34934 | 15117 ft | 226 kts | 50° |
| 2026-04-29 10:40 | 52.27546 | 47.36975 | 15117 ft | 226 kts | 50° |
| 2026-04-29 10:41 | 52.28494 | 47.39019 | 15116 ft | 226 kts | 50° |
| 2026-04-29 10:41 | 52.29440 | 47.41060 | 15113 ft | 225 kts | 50° |
| 2026-04-29 10:41 | 52.30385 | 47.43097 | 15114 ft | 225 kts | 50° |
| 2026-04-29 10:41 | 52.31329 | 47.45134 | 15113 ft | 225 kts | 50° |
| 2026-04-29 10:42 | 52.32273 | 47.47170 | 15112 ft | 225 kts | 50° |
| 2026-04-29 10:42 | 52.33217 | 47.49212 | 15113 ft | 225 kts | 50° |
| 2026-04-29 10:42 | 52.34160 | 47.51251 | 15115 ft | 225 kts | 50° |
| 2026-04-29 10:42 | 52.35103 | 47.53295 | 15114 ft | 225 kts | 50° |
| 2026-04-29 10:43 | 52.36045 | 47.55338 | 15117 ft | 225 kts | 50° |
| 2026-04-29 10:43 | 52.36989 | 47.57385 | 15116 ft | 226 kts | 50° |
| 2026-04-29 10:43 | 52.37931 | 47.59430 | 15118 ft | 224 kts | 51° |
| 2026-04-29 10:43 | 52.38869 | 47.61467 | 15114 ft | 224 kts | 51° |
| 2026-04-29 10:44 | 52.39805 | 47.63503 | 15114 ft | 223 kts | 51° |
| 2026-04-29 10:44 | 52.40738 | 47.65531 | 15115 ft | 223 kts | 51° |
| 2026-04-29 10:44 | 52.41670 | 47.67559 | 15114 ft | 223 kts | 51° |
| 2026-04-29 10:44 | 52.42588 | 47.69560 | 15116 ft | 222 kts | 51° |
| 2026-04-29 10:45 | 52.43530 | 47.71617 | 15115 ft | 223 kts | 51° |
| 2026-04-29 10:45 | 52.44462 | 47.73648 | 15112 ft | 223 kts | 51° |
| 2026-04-29 10:45 | 52.45394 | 47.75682 | 15112 ft | 223 kts | 51° |
| 2026-04-29 10:45 | 52.46323 | 47.77712 | 15111 ft | 222 kts | 51° |
| 2026-04-29 10:46 | 52.47250 | 47.79742 | 15111 ft | 222 kts | 51° |
| 2026-04-29 10:46 | 52.48175 | 47.81769 | 15115 ft | 222 kts | 51° |
| 2026-04-29 10:46 | 52.49104 | 47.83804 | 15113 ft | 223 kts | 51° |
| 2026-04-29 10:46 | 52.50032 | 47.85838 | 15115 ft | 223 kts | 51° |
| 2026-04-29 10:47 | 52.50961 | 47.87880 | 15112 ft | 223 kts | 51° |
| 2026-04-29 10:47 | 52.51890 | 47.89921 | 15113 ft | 224 kts | 51° |
| 2026-04-29 10:47 | 52.52811 | 47.91942 | 15110 ft | 223 kts | 51° |
| 2026-04-29 10:47 | 52.53737 | 47.93979 | 15110 ft | 222 kts | 51° |
| 2026-04-29 10:48 | 52.54662 | 47.96017 | 15110 ft | 222 kts | 51° |
| 2026-04-29 10:48 | 52.55585 | 47.98052 | 15111 ft | 222 kts | 51° |
| 2026-04-29 10:48 | 52.56506 | 48.00081 | 15111 ft | 221 kts | 51° |
| 2026-04-29 10:48 | 52.57427 | 48.02114 | 15110 ft | 222 kts | 51° |
| 2026-04-29 10:49 | 52.58348 | 48.04151 | 15111 ft | 222 kts | 51° |
| 2026-04-29 10:49 | 52.59270 | 48.06190 | 15110 ft | 222 kts | 51° |
| 2026-04-29 10:49 | 52.60193 | 48.08228 | 15111 ft | 222 kts | 51° |
| 2026-04-29 10:49 | 52.61115 | 48.10271 | 15112 ft | 222 kts | 51° |
| 2026-04-29 10:50 | 52.62038 | 48.12316 | 15107 ft | 223 kts | 51° |
| 2026-04-29 10:50 | 52.62959 | 48.14359 | 15109 ft | 222 kts | 51° |
| 2026-04-29 10:50 | 52.63881 | 48.16405 | 15108 ft | 222 kts | 51° |
| 2026-04-29 10:50 | 52.64802 | 48.18452 | 15108 ft | 223 kts | 51° |
| 2026-04-29 10:51 | 52.65724 | 48.20501 | 15107 ft | 222 kts | 51° |
| 2026-04-29 10:51 | 52.66643 | 48.22544 | 15107 ft | 222 kts | 51° |
| 2026-04-29 10:51 | 52.67560 | 48.24586 | 15107 ft | 221 kts | 51° |
| 2026-04-29 10:51 | 52.68477 | 48.26630 | 15108 ft | 222 kts | 51° |
| 2026-04-29 10:52 | 52.69395 | 48.28677 | 15108 ft | 222 kts | 51° |
| 2026-04-29 10:52 | 52.70314 | 48.30729 | 15109 ft | 222 kts | 51° |
| 2026-04-29 10:52 | 52.71234 | 48.32785 | 15103 ft | 223 kts | 51° |
| 2026-04-29 10:52 | 52.72153 | 48.34841 | 15101 ft | 222 kts | 51° |
| 2026-04-29 10:53 | 52.73070 | 48.36892 | 15100 ft | 222 kts | 51° |
| 2026-04-29 10:53 | 52.73986 | 48.38941 | 15100 ft | 222 kts | 51° |
| 2026-04-29 10:53 | 52.74903 | 48.40995 | 15101 ft | 222 kts | 51° |
| 2026-04-29 10:53 | 52.75819 | 48.43052 | 15101 ft | 223 kts | 51° |
| 2026-04-29 10:54 | 52.76738 | 48.45116 | 15100 ft | 223 kts | 51° |
| 2026-04-29 10:54 | 52.77655 | 48.47175 | 15100 ft | 223 kts | 51° |
| 2026-04-29 10:54 | 52.78573 | 48.49240 | 15100 ft | 222 kts | 51° |
| 2026-04-29 10:54 | 52.79488 | 48.51297 | 15102 ft | 222 kts | 51° |
| 2026-04-29 10:55 | 52.80403 | 48.53360 | 15102 ft | 223 kts | 51° |
| 2026-04-29 10:55 | 52.81321 | 48.55427 | 15101 ft | 223 kts | 51° |
| 2026-04-29 10:55 | 52.82223 | 48.57464 | 15100 ft | 223 kts | 51° |
| 2026-04-29 10:55 | 52.83139 | 48.59530 | 15101 ft | 223 kts | 51° |
| 2026-04-29 10:56 | 52.84058 | 48.61606 | 14956 ft | 226 kts | 51° |
| 2026-04-29 10:56 | 52.84986 | 48.63709 | 14681 ft | 226 kts | 51° |
| 2026-04-29 10:56 | 52.85913 | 48.65807 | 14408 ft | 225 kts | 51° |
| 2026-04-29 10:56 | 52.86836 | 48.67895 | 14136 ft | 224 kts | 51° |
| 2026-04-29 10:57 | 52.87751 | 48.69970 | 13868 ft | 223 kts | 51° |
| 2026-04-29 10:57 | 52.88661 | 48.72034 | 13561 ft | 221 kts | 51° |
| 2026-04-29 10:57 | 52.89564 | 48.74082 | 13257 ft | 219 kts | 51° |
| 2026-04-29 10:57 | 52.90461 | 48.76117 | 12961 ft | 218 kts | 51° |
| 2026-04-29 10:58 | 52.91351 | 48.78142 | 12660 ft | 217 kts | 51° |
| 2026-04-29 10:58 | 52.92235 | 48.80155 | 12365 ft | 215 kts | 52° |
| 2026-04-29 10:58 | 52.93112 | 48.82156 | 12073 ft | 214 kts | 52° |
| 2026-04-29 10:58 | 52.93985 | 48.84144 | 11783 ft | 213 kts | 52° |
| 2026-04-29 10:59 | 52.94853 | 48.86122 | 11499 ft | 211 kts | 52° |
| 2026-04-29 10:59 | 52.95715 | 48.88090 | 11214 ft | 210 kts | 52° |
| 2026-04-29 10:59 | 52.96571 | 48.90046 | 10936 ft | 209 kts | 52° |
| 2026-04-29 10:59 | 52.97420 | 48.91988 | 10654 ft | 207 kts | 52° |
| 2026-04-29 11:00 | 52.98263 | 48.93917 | 10374 ft | 206 kts | 52° |
| 2026-04-29 11:00 | 52.99101 | 48.95836 | 10102 ft | 205 kts | 52° |
| 2026-04-29 11:00 | 52.99934 | 48.97748 | 9806 ft | 204 kts | 52° |
| 2026-04-29 11:00 | 53.00760 | 48.99642 | 9504 ft | 202 kts | 52° |
| 2026-04-29 11:01 | 53.01584 | 49.01532 | 9201 ft | 201 kts | 52° |
| 2026-04-29 11:01 | 53.02403 | 49.03413 | 8901 ft | 200 kts | 53° |
| 2026-04-29 11:01 | 53.03218 | 49.05285 | 8610 ft | 199 kts | 53° |
| 2026-04-29 11:01 | 53.04026 | 49.07144 | 8317 ft | 198 kts | 53° |
| 2026-04-29 11:02 | 53.04830 | 49.08995 | 8020 ft | 196 kts | 53° |
| 2026-04-29 11:02 | 53.05627 | 49.10831 | 7734 ft | 196 kts | 53° |
| 2026-04-29 11:02 | 53.06422 | 49.12662 | 7445 ft | 195 kts | 53° |
| 2026-04-29 11:02 | 53.07213 | 49.14487 | 7161 ft | 194 kts | 53° |
| 2026-04-29 11:03 | 53.07968 | 49.16231 | 7110 ft | 181 kts | 53° |
| 2026-04-29 11:03 | 53.08768 | 49.17794 | 7097 ft | 170 kts | 36° |
| 2026-04-29 11:03 | 53.09676 | 49.18927 | 7100 ft | 162 kts | 32° |
| 2026-04-29 11:03 | 53.10577 | 49.20014 | 7093 ft | 158 kts | 32° |
| 2026-04-29 11:04 | 53.11456 | 49.21076 | 7091 ft | 154 kts | 32° |
| 2026-04-29 11:04 | 53.12320 | 49.22121 | 7096 ft | 153 kts | 32° |
| 2026-04-29 11:04 | 53.13181 | 49.23164 | 7091 ft | 153 kts | 32° |
| 2026-04-29 11:04 | 53.14041 | 49.24208 | 7085 ft | 152 kts | 32° |
| 2026-04-29 11:05 | 53.14895 | 49.25245 | 7088 ft | 152 kts | 32° |
| 2026-04-29 11:05 | 53.15749 | 49.26282 | 7082 ft | 152 kts | 33° |
| 2026-04-29 11:05 | 53.16601 | 49.27318 | 7085 ft | 151 kts | 33° |
| 2026-04-29 11:05 | 53.17449 | 49.28349 | 7084 ft | 150 kts | 32° |
| 2026-04-29 11:06 | 53.18322 | 49.29405 | 7095 ft | 164 kts | 32° |
| 2026-04-29 11:06 | 53.19282 | 49.30572 | 7099 ft | 177 kts | 33° |
| 2026-04-29 11:06 | 53.20296 | 49.31810 | 7098 ft | 184 kts | 33° |
| 2026-04-29 11:06 | 53.21343 | 49.33088 | 7098 ft | 188 kts | 33° |
| 2026-04-29 11:07 | 53.22407 | 49.34388 | 7097 ft | 191 kts | 33° |
| 2026-04-29 11:07 | 53.23484 | 49.35706 | 7098 ft | 192 kts | 33° |
| 2026-04-29 11:07 | 53.24554 | 49.37009 | 7095 ft | 194 kts | 33° |
| 2026-04-29 11:07 | 53.25646 | 49.38347 | 7091 ft | 195 kts | 33° |
| 2026-04-29 11:08 | 53.26741 | 49.39688 | 7093 ft | 195 kts | 33° |
| 2026-04-29 11:08 | 53.27835 | 49.41026 | 7096 ft | 194 kts | 33° |
| 2026-04-29 11:08 | 53.28923 | 49.42356 | 7088 ft | 193 kts | 33° |
| 2026-04-29 11:08 | 53.30005 | 49.43682 | 7096 ft | 193 kts | 33° |
| 2026-04-29 11:09 | 53.31093 | 49.45014 | 7087 ft | 194 kts | 33° |
| 2026-04-29 11:09 | 53.32184 | 49.46353 | 7090 ft | 195 kts | 33° |
| 2026-04-29 11:09 | 53.33277 | 49.47693 | 7091 ft | 195 kts | 33° |
| 2026-04-29 11:09 | 53.34371 | 49.49043 | 7086 ft | 195 kts | 33° |
| 2026-04-29 11:10 | 53.35459 | 49.50379 | 7083 ft | 193 kts | 33° |
| 2026-04-29 11:10 | 53.36542 | 49.51708 | 7090 ft | 194 kts | 33° |
| 2026-04-29 11:10 | 53.37632 | 49.53049 | 7084 ft | 194 kts | 34° |
| 2026-04-29 11:10 | 53.38717 | 49.54398 | 7067 ft | 194 kts | 34° |
| 2026-04-29 11:11 | 53.39798 | 49.55719 | 7083 ft | 193 kts | 33° |
| 2026-04-29 11:11 | 53.40867 | 49.57030 | 7085 ft | 193 kts | 33° |
| 2026-04-29 11:11 | 53.41935 | 49.58351 | 7034 ft | 190 kts | 33° |
| 2026-04-29 11:11 | 53.42993 | 49.59662 | 6852 ft | 187 kts | 34° |
| 2026-04-29 11:12 | 53.44028 | 49.60943 | 6681 ft | 184 kts | 33° |
| 2026-04-29 11:12 | 53.45054 | 49.62208 | 6503 ft | 183 kts | 33° |
| 2026-04-29 11:12 | 53.46082 | 49.63482 | 6297 ft | 185 kts | 33° |
| 2026-04-29 11:12 | 53.47128 | 49.64775 | 6088 ft | 188 kts | 33° |
| 2026-04-29 11:13 | 53.48185 | 49.66084 | 5862 ft | 189 kts | 33° |
| 2026-04-29 11:13 | 53.49237 | 49.67388 | 5650 ft | 187 kts | 33° |
| 2026-04-29 11:13 | 53.50279 | 49.68680 | 5440 ft | 186 kts | 33° |
| 2026-04-29 11:13 | 53.51317 | 49.69968 | 5230 ft | 185 kts | 33° |
| 2026-04-29 11:14 | 53.52353 | 49.71254 | 5024 ft | 185 kts | 33° |
| 2026-04-29 11:14 | 53.53385 | 49.72538 | 4821 ft | 185 kts | 33° |
| 2026-04-29 11:14 | 53.54424 | 49.73826 | 4605 ft | 186 kts | 33° |
| 2026-04-29 11:14 | 53.55463 | 49.75119 | 4391 ft | 185 kts | 33° |
| 2026-04-29 11:15 | 53.56496 | 49.76406 | 4162 ft | 184 kts | 33° |
| 2026-04-29 11:15 | 53.57524 | 49.77685 | 3999 ft | 183 kts | 33° |
| 2026-04-29 11:15 | 53.58520 | 49.78928 | 3945 ft | 176 kts | 33° |
| 2026-04-29 11:15 | 53.59489 | 49.80137 | 3860 ft | 170 kts | 33° |
| 2026-04-29 11:16 | 53.60433 | 49.81315 | 3751 ft | 167 kts | 33° |
| 2026-04-29 11:16 | 53.61361 | 49.82472 | 3655 ft | 165 kts | 33° |
| 2026-04-29 11:16 | 53.62290 | 49.83632 | 3549 ft | 166 kts | 32° |
| 2026-04-29 11:16 | 53.63221 | 49.84796 | 3450 ft | 167 kts | 32° |
| 2026-04-29 11:17 | 53.64153 | 49.85960 | 3365 ft | 165 kts | 32° |
| 2026-04-29 11:17 | 53.65046 | 49.87078 | 3363 ft | 159 kts | 32° |
| 2026-04-29 11:17 | 53.65931 | 49.88185 | 3370 ft | 155 kts | 33° |
| 2026-04-29 11:17 | 53.66783 | 49.89253 | 3365 ft | 157 kts | 34° |
| 2026-04-29 11:18 | 53.67485 | 49.90718 | 3364 ft | 165 kts | 67° |
| 2026-04-29 11:18 | 53.67700 | 49.92606 | 3372 ft | 166 kts | 94° |
| 2026-04-29 11:18 | 53.67701 | 49.94562 | 3374 ft | 168 kts | 96° |
| 2026-04-29 11:18 | 53.67689 | 49.96536 | 3371 ft | 169 kts | 95° |
| 2026-04-29 11:19 | 53.67681 | 49.98540 | 3285 ft | 173 kts | 95° |
| 2026-04-29 11:19 | 53.67674 | 50.00591 | 3180 ft | 176 kts | 95° |
| 2026-04-29 11:19 | 53.67669 | 50.02673 | 3074 ft | 179 kts | 95° |
| 2026-04-29 11:19 | 53.67601 | 50.04751 | 2989 ft | 174 kts | 108° |
| 2026-04-29 11:20 | 53.67161 | 50.06557 | 2998 ft | 162 kts | 132° |
| 2026-04-29 11:20 | 53.66404 | 50.07895 | 2961 ft | 155 kts | 153° |
| 2026-04-29 11:20 | 53.65462 | 50.08688 | 2832 ft | 150 kts | 168° |
| 2026-04-29 11:20 | 53.64484 | 50.09274 | 2692 ft | 146 kts | 169° |
| 2026-04-29 11:21 | 53.63549 | 50.09839 | 2560 ft | 139 kts | 169° |
| 2026-04-29 11:21 | 53.62666 | 50.10371 | 2435 ft | 134 kts | 170° |
| 2026-04-29 11:21 | 53.61814 | 50.10882 | 2322 ft | 122 kts | 171° |
| 2026-04-29 11:21 | 53.61035 | 50.11347 | 2186 ft | 117 kts | 171° |
| 2026-04-29 11:22 | 53.60276 | 50.11807 | 2067 ft | 115 kts | 171° |
| 2026-04-29 11:22 | 53.59538 | 50.12245 | 1969 ft | 113 kts | 171° |
| 2026-04-29 11:22 | 53.58793 | 50.12696 | 1827 ft | 115 kts | 169° |
| 2026-04-29 11:22 | 53.58030 | 50.13148 | 1693 ft | 117 kts | 171° |
| 2026-04-29 11:23 | 53.57248 | 50.13605 | 1517 ft | 118 kts | 170° |
| 2026-04-29 11:23 | 53.56525 | 50.14064 | 1372 ft | 104 kts | 172° |
| 2026-04-29 11:23 | 53.55876 | 50.14456 | 1248 ft | 96 kts | 172° |
| 2026-04-29 11:23 | 53.55245 | 50.14823 | 1127 ft | 97 kts | 174° |
| 2026-04-29 11:24 | 53.54619 | 50.15155 | 1017 ft | 94 kts | 175° |
| 2026-04-29 11:24 | 53.53995 | 50.15512 | 905 ft | 94 kts | 167° |
| 2026-04-29 11:24 | 53.53378 | 50.15913 | 800 ft | 95 kts | 171° |
| 2026-04-29 11:24 | 53.52950 | 50.16137 | 726 ft | 100 kts | 164° |
| 2026-04-29 11:25 | 53.52284 | 50.16575 | 550 ft | 104 kts | 165° |
| 2026-04-29 11:25 | 53.51624 | 50.16986 | 422 ft | 89 kts | 166° |
| 2026-04-29 11:25 | 53.51169 | 50.17251 | 406 ft | 54 kts | 158° |
| 2026-04-29 11:25 | 53.50879 | 50.17428 | 405 ft | 36 kts | 160° |
| 2026-04-29 11:26 | 53.50537 | 50.17634 | 409 ft | 18 kts | 166° |
| 2026-04-29 11:26 | 53.50489 | 50.17529 | 412 ft | 9 kts | 250° |
| 2026-04-29 11:26 | 53.50476 | 50.17461 | 413 ft | 0 kts | 251° |
| 2026-04-29 11:27 | 53.50467 | 50.17419 | 414 ft | 11 kts | 250° |
| 2026-04-29 11:27 | 53.50448 | 50.17284 | 418 ft | 14 kts | 292° |
| 2026-04-29 11:27 | 53.50576 | 50.17189 | 419 ft | 27 kts | 342° |
| 2026-04-29 11:27 | 53.50777 | 50.17072 | 434 ft | 31 kts | 340° |
| 2026-04-29 11:28 | 53.50882 | 50.16926 | 460 ft | 18 kts | 300° |
| 2026-04-29 11:28 | 53.50978 | 50.16668 | 464 ft | 34 kts | 301° |
| 2026-04-29 11:28 | 53.51079 | 50.16384 | 448 ft | 14 kts | 291° |
| 2026-04-29 11:28 | 53.51050 | 50.16267 | 449 ft | 9 kts | 242° |
| 2026-04-29 11:29 | 53.51081 | 50.16175 | 444 ft | 14 kts | 332° |
| 2026-04-29 11:29 | 53.51102 | 50.16156 | 441 ft | 0 kts | 330° |